TimeCDT,TemperatureF,Dew PointF,Humidity,Sea Level PressureIn,VisibilityMPH,Wind Direction,Wind SpeedMPH,Gust SpeedMPH,PrecipitationIn,Events,Conditions,WindDirDegrees,DateUTC
12:52 AM,24.1,19.9,84,30.23,9.0,South,15.0,-,N/A,,Overcast,180,2013-03-14 05:52:00
1:52 AM,23.0,19.0,85,30.19,9.0,South,13.8,-,N/A,,Mostly Cloudy,180,2013-03-14 06:52:00
2:52 AM,24.1,19.9,84,30.16,10.0,South,16.1,-,N/A,,Overcast,180,2013-03-14 07:52:00
4:52 AM,27.0,21.9,81,30.11,10.0,SSE,12.7,-,N/A,,Overcast,150,2013-03-14 09:52:00
5:52 AM,27.0,21.9,81,30.08,9.0,SSE,17.3,-,N/A,,Overcast,160,2013-03-14 10:52:00
6:52 AM,27.0,23.0,85,30.10,9.0,East,8.1,-,N/A,,Overcast,100,2013-03-14 11:52:00
7:52 AM,26.1,21.9,84,30.09,7.0,SSE,10.4,-,N/A,,Clear,150,2013-03-14 12:52:00
9:52 AM,28.9,24.1,82,30.12,8.0,South,10.4,-,N/A,,Clear,180,2013-03-14 14:52:00
10:52 AM,32.0,26.1,79,30.11,9.0,South,5.8,-,N/A,,Clear,190,2013-03-14 15:52:00
11:52 AM,36.0,28.0,73,30.09,10.0,West,3.5,-,N/A,,Clear,280,2013-03-14 16:52:00
12:52 PM,39.0,30.0,70,30.11,10.0,NW,5.8,-,N/A,,Clear,310,2013-03-14 17:52:00
1:52 PM,42.1,32.0,67,30.11,10.0,NNW,9.2,-,N/A,,Clear,340,2013-03-14 18:52:00
2:52 PM,43.0,34.0,71,30.10,10.0,North,8.1,-,N/A,,Clear,360,2013-03-14 19:52:00
3:52 PM,44.1,34.0,68,30.10,9.0,North,5.8,-,N/A,,Clear,10,2013-03-14 20:52:00
4:52 PM,43.0,35.1,74,30.12,9.0,North,5.8,-,N/A,,Clear,10,2013-03-14 21:52:00
5:52 PM,42.1,34.0,73,30.12,8.0,Calm,Calm,-,N/A,,Clear,0,2013-03-14 22:52:00
6:52 PM,39.9,36.0,86,30.13,6.0,Calm,Calm,-,N/A,,Clear,0,2013-03-14 23:52:00
7:52 PM,34.0,30.9,89,30.12,6.0,SSE,5.8,-,N/A,,Clear,150,2013-03-15 00:52:00
8:52 PM,34.0,30.9,89,30.09,5.0,South,5.8,-,N/A,,Clear,180,2013-03-15 01:52:00
9:52 PM,34.0,30.9,89,30.08,6.0,South,5.8,-,N/A,,Clear,190,2013-03-15 02:52:00
10:52 PM,33.1,30.0,89,30.07,5.0,South,6.9,-,N/A,,Clear,190,2013-03-15 03:52:00
11:52 PM,33.1,30.9,92,30.04,4.0,SSW,6.9,-,N/A,,Clear,200,2013-03-15 04:52:00